Time;durP1;ratioP1;P1;durP2;ratioP2;P2;SDS_P1;SDS_P2;PMS_P1;PMS_P2;Temp;Humidity;BMP_temperature;BMP_pressure;BME280_temperature;BME280_humidity;BME280_pressure;Samples;Min_cycle;Max_cycle;Signal;HPM_P1;HPM_P2
2023/07/04 00:02:04;;;;;;;5.07;2.90;;;;;;;24.30;45.78;98579.28;7005650;28;20265;-82
2023/07/04 00:05:26;;;;;;;4.93;2.50;;;;;;;24.15;46.25;98590.53;7006161;28;20575;-82
2023/07/04 00:08:49;;;;;;;3.83;2.33;;;;;;;24.17;45.79;98581.97;7005374;28;20317;-82
2023/07/04 00:12:11;;;;;;;3.20;2.20;;;;;;;24.25;45.97;98584.88;7004963;28;20282;-82
2023/07/04 00:15:32;;;;;;;3.57;2.53;;;;;;;24.20;45.84;98586.88;7005739;28;20296;-83
2023/07/04 00:18:55;;;;;;;3.90;2.50;;;;;;;24.28;45.84;98581.53;7005743;28;20224;-82
2023/07/04 00:22:17;;;;;;;4.17;2.53;;;;;;;24.11;46.13;98583.16;7006389;28;20296;-82
2023/07/04 00:25:38;;;;;;;4.77;2.50;;;;;;;23.90;46.32;98587.31;7005983;28;20665;-82
2023/07/04 00:29:00;;;;;;;3.80;2.67;;;;;;;23.95;46.09;98568.78;6995630;28;20312;-82
2023/07/04 00:32:22;;;;;;;2.83;2.10;;;;;;;24.15;45.71;98579.53;7004848;28;20290;-83
2023/07/04 00:35:45;;;;;;;3.10;2.20;;;;;;;24.12;45.72;98587.56;7005979;28;20211;-82
2023/07/04 00:39:07;;;;;;;4.30;2.30;;;;;;;23.67;47.02;98571.63;7006533;28;20365;-83
2023/07/04 00:42:31;;;;;;;2.30;2.00;;;;;;;23.69;46.76;98575.72;7007330;28;20202;-82
2023/07/04 00:45:56;;;;;;;5.37;2.30;;;;;;;23.77;47.15;98585.25;7008510;28;20214;-83
2023/07/04 00:49:22;;;;;;;2.63;2.13;;;;;;;23.18;48.31;98568.38;7015124;28;20249;-83
2023/07/04 00:52:45;;;;;;;2.83;2.50;;;;;;;23.59;48.18;98584.09;7014538;28;20227;-83
2023/07/04 00:56:07;;;;;;;3.53;2.40;;;;;;;23.63;47.36;98589.84;7012678;28;20200;-83
2023/07/04 00:59:30;;;;;;;2.50;2.10;;;;;;;23.51;47.93;98592.19;7012354;28;20199;-82
2023/07/04 01:02:59;;;;;;;3.87;2.10;;;;;;;23.66;48.06;98595.56;7000938;28;20239;-82
2023/07/04 01:06:25;;;;;;;2.93;2.30;;;;;;;23.71;47.89;98589.19;6997866;28;20215;-82
2023/07/04 01:09:52;;;;;;;5.47;2.67;;;;;;;23.53;48.45;98596.28;6997951;28;20199;-83
2023/07/04 01:13:32;;;;;;;3.00;2.70;;;;;;;23.60;48.62;98594.00;6999015;28;20284;-83
2023/07/04 01:16:53;;;;;;;4.03;2.70;;;;;;;23.84;47.61;98586.53;6997987;28;20567;-83
2023/07/04 01:20:17;;;;;;;4.30;2.67;;;;;;;23.90;47.87;98593.63;6998331;28;20674;-83
2023/07/04 01:23:48;;;;;;;3.43;2.30;;;;;;;23.78;48.28;98590.47;6997606;28;20213;-83
2023/07/04 01:27:14;;;;;;;2.63;2.40;;;;;;;23.74;48.63;98591.34;6997281;28;20233;-83
2023/07/04 01:30:38;;;;;;;3.57;2.43;;;;;;;23.49;48.34;98542.94;6998245;28;20214;-83
2023/07/04 01:34:00;;;;;;;3.50;2.40;;;;;;;23.64;48.88;98577.69;6997271;28;20677;-82
2023/07/04 01:37:21;;;;;;;3.03;2.57;;;;;;;23.79;48.44;98580.28;6997604;28;20880;-83
2023/07/04 01:40:43;;;;;;;3.67;2.60;;;;;;;23.87;48.72;98580.47;6997424;28;20201;-83
2023/07/04 01:44:07;;;;;;;4.60;2.97;;;;;;;23.65;49.27;98593.94;6997998;28;20212;-83
2023/07/04 01:47:30;;;;;;;4.40;2.67;;;;;;;23.55;49.69;98591.28;6996982;28;20378;-83
2023/07/04 01:50:51;;;;;;;4.10;2.97;;;;;;;23.44;50.08;98595.31;6997742;28;20202;-83
2023/07/04 01:54:17;;;;;;;3.87;2.50;;;;;;;23.65;49.20;98593.13;6996974;28;20205;-83
2023/07/04 01:57:39;;;;;;;3.47;2.33;;;;;;;23.53;49.51;98574.25;7004462;28;20226;-83
2023/07/04 02:01:02;;;;;;;4.30;2.77;;;;;;;23.26;50.91;98593.28;7000502;28;20209;-83
2023/07/04 02:04:23;;;;;;;3.77;2.60;;;;;;;23.55;50.12;98588.53;6997216;28;20353;-83
2023/07/04 02:07:46;;;;;;;3.73;2.60;;;;;;;23.62;49.97;98591.78;6995395;28;20762;-83
2023/07/04 02:11:07;;;;;;;2.93;2.50;;;;;;;23.20;51.00;98601.91;6996871;28;20283;-83
2023/07/04 02:14:29;;;;;;;4.73;3.20;;;;;;;23.57;49.69;98599.25;6996730;28;20206;-83
2023/07/04 02:17:51;;;;;;;4.03;2.80;;;;;;;23.48;49.76;98549.56;6996053;28;20287;-83
2023/07/04 02:21:13;;;;;;;3.27;2.67;;;;;;;23.37;49.20;98511.47;6996477;28;20200;-83
2023/07/04 02:24:35;;;;;;;2.83;2.50;;;;;;;23.69;49.67;98596.91;6996365;28;20646;-83
2023/07/04 02:27:57;;;;;;;3.00;2.70;;;;;;;23.16;51.29;98590.66;6993994;28;20223;-83
2023/07/04 02:31:18;;;;;;;4.87;2.90;;;;;;;23.25;51.09;98599.91;6997196;28;20245;-83
2023/07/04 02:34:41;;;;;;;4.07;2.37;;;;;;;22.72;53.04;98592.69;6973562;28;20215;-83
2023/07/04 02:38:02;;;;;;;4.40;3.00;;;;;;;22.92;52.36;98606.28;6968515;28;20261;-83
2023/07/04 02:41:24;;;;;;;3.77;2.70;;;;;;;22.49;53.27;98590.69;6969387;28;20802;-83
2023/07/04 02:44:45;;;;;;;5.00;2.97;;;;;;;22.51;53.92;98590.41;6970581;28;20195;-83
2023/07/04 02:48:07;;;;;;;4.30;2.90;;;;;;;22.90;52.25;98594.72;6974598;28;20605;-83
2023/07/04 02:51:30;;;;;;;4.23;2.60;;;;;;;22.69;53.42;98606.19;6975286;28;20217;-82
2023/07/04 02:54:52;;;;;;;6.60;3.13;;;;;;;22.18;54.54;98597.47;6974396;28;20220;-82
2023/07/04 02:58:13;;;;;;;3.17;2.53;;;;;;;22.17;54.92;98604.06;6974123;28;20245;-82
2023/07/04 03:01:35;;;;;;;5.20;2.80;;;;;;;21.91;54.67;98541.38;6975077;28;20307;-83
2023/07/04 03:04:57;;;;;;;2.80;2.60;;;;;;;22.57;53.88;98609.31;6974478;28;20206;-83
2023/07/04 03:08:21;;;;;;;5.90;2.83;;;;;;;22.40;54.57;98610.78;6972322;28;20235;-83
2023/07/04 03:11:42;;;;;;;3.37;2.87;;;;;;;21.90;56.26;98617.41;6974568;28;20191;-84
2023/07/04 03:15:05;;;;;;;6.07;3.20;;;;;;;21.96;55.93;98608.03;6974562;28;20236;-83
2023/07/04 03:18:27;;;;;;;4.53;3.03;;;;;;;22.22;54.73;98622.44;6973243;28;20224;-83
2023/07/04 03:21:49;;;;;;;4.30;2.93;;;;;;;22.51;54.36;98615.13;6974167;28;20346;-83
2023/07/04 03:25:12;;;;;;;3.47;2.50;;;;;;;22.40;54.19;98619.84;6974110;28;20208;-83
2023/07/04 03:28:34;;;;;;;3.50;2.70;;;;;;;22.22;54.76;98614.19;6973500;28;20320;-83
2023/07/04 03:31:55;;;;;;;5.83;3.20;;;;;;;22.06;55.30;98623.66;6973575;28;20206;-83
2023/07/04 03:35:17;;;;;;;3.57;2.97;;;;;;;22.67;53.55;98622.97;6973588;28;20272;-83
2023/07/04 03:38:38;;;;;;;4.70;2.97;;;;;;;21.89;55.80;98621.25;6972705;28;20321;-83
2023/07/04 03:42:01;;;;;;;3.67;2.60;;;;;;;22.55;54.17;98628.00;6973768;28;20207;-82
2023/07/04 03:45:23;;;;;;;4.20;2.63;;;;;;;21.84;54.30;98554.59;6974437;28;20279;-84
2023/07/04 03:48:45;;;;;;;3.50;2.63;;;;;;;22.40;53.67;98625.34;6972000;28;20287;-83
2023/07/04 03:52:07;;;;;;;4.00;2.70;;;;;;;21.91;54.09;98544.94;6975571;28;20203;-82
2023/07/04 03:55:29;;;;;;;4.40;2.80;;;;;;;22.66;53.38;98604.84;6972531;28;20210;-83
2023/07/04 03:58:53;;;;;;;2.57;2.33;;;;;;;21.74;54.65;98571.09;6971552;28;20223;-83
2023/07/04 04:02:14;;;;;;;4.47;2.60;;;;;;;22.82;52.20;98573.38;6973762;28;20579;-83
2023/07/04 04:05:36;;;;;;;4.57;2.60;;;;;;;22.36;53.57;98618.78;6973239;28;20304;-83
2023/07/04 04:08:57;;;;;;;4.00;2.63;;;;;;;22.84;52.28;98590.38;6973105;28;20227;-83
2023/07/04 04:12:19;;;;;;;3.93;2.40;;;;;;;22.87;52.53;98613.72;6973194;28;20709;-83
2023/07/04 04:15:42;;;;;;;3.40;2.67;;;;;;;23.57;50.30;98624.88;6973581;28;20259;-83
2023/07/04 04:19:03;;;;;;;3.07;2.63;;;;;;;23.14;51.74;98623.09;7000857;28;20317;-83
2023/07/04 04:22:25;;;;;;;3.20;2.60;;;;;;;23.23;51.74;98606.81;7000162;28;20381;-83
2023/07/04 04:25:46;;;;;;;2.53;2.23;;;;;;;23.27;51.18;98596.88;7002392;28;20212;-83
2023/07/04 04:29:08;;;;;;;2.83;2.40;;;;;;;23.28;51.17;98621.34;6997442;28;20385;-83
2023/07/04 04:32:31;;;;;;;3.03;2.33;;;;;;;23.14;52.01;98616.78;7002092;28;20269;-83
2023/07/04 04:35:52;;;;;;;2.70;2.50;;;;;;;23.10;52.34;98616.53;7006025;28;20915;-83
2023/07/04 04:39:14;;;;;;;3.00;2.40;;;;;;;23.12;52.11;98616.25;7008171;28;20372;-83
2023/07/04 04:42:35;;;;;;;4.30;2.67;;;;;;;22.95;52.82;98619.44;7003139;28;20712;-84
2023/07/04 04:45:57;;;;;;;3.00;2.40;;;;;;;23.56;51.00;98622.41;7001237;28;20280;-83
2023/07/04 04:49:21;;;;;;;4.10;2.57;;;;;;;24.03;49.83;98612.22;7002866;28;20337;-84
2023/07/04 04:52:44;;;;;;;3.03;2.50;;;;;;;23.27;51.83;98614.22;7002358;28;20204;-83
2023/07/04 04:56:06;;;;;;;3.10;2.30;;;;;;;23.70;51.05;98626.91;7001476;28;20209;-83
2023/07/04 04:59:29;;;;;;;2.50;2.30;;;;;;;24.37;48.58;98629.31;7001683;28;20261;-83
2023/07/04 05:02:50;;;;;;;2.40;2.20;;;;;;;24.37;48.80;98628.53;6994202;28;20231;-83
2023/07/04 05:06:13;;;;;;;3.27;2.30;;;;;;;24.43;48.85;98635.59;6992444;28;20267;-84
2023/07/04 05:09:35;;;;;;;2.60;2.20;;;;;;;24.61;47.95;98635.59;7000389;28;20224;-84
2023/07/04 05:12:57;;;;;;;2.60;2.23;;;;;;;25.23;46.12;98628.75;6973447;28;20291;-84
2023/07/04 05:16:21;;;;;;;2.27;2.07;;;;;;;25.07;46.62;98642.00;6973298;28;20619;-84
2023/07/04 05:19:42;;;;;;;2.23;2.10;;;;;;;25.04;47.45;98637.13;6973245;28;20200;-86
2023/07/04 05:23:06;;;;;;;2.57;2.37;;;;;;;24.63;46.31;98574.66;6983809;28;20299;-84
2023/07/04 05:26:29;;;;;;;2.63;2.10;;;;;;;25.40;45.64;98642.81;7001113;28;20731;-83
2023/07/04 05:29:51;;;;;;;4.30;2.10;;;;;;;24.70;47.05;98635.75;7001437;28;20228;-81
2023/07/04 05:33:12;;;;;;;2.60;2.40;;;;;;;25.48;45.57;98634.66;7001404;28;20212;-81
2023/07/04 05:36:34;;;;;;;3.30;2.30;;;;;;;25.00;46.89;98651.78;7000115;28;20705;-82
2023/07/04 05:39:57;;;;;;;3.20;2.53;;;;;;;24.73;46.70;98647.00;7001572;28;20209;-81
2023/07/04 05:43:19;;;;;;;2.07;1.97;;;;;;;24.51;47.80;98655.03;6988435;28;20206;-81
2023/07/04 05:46:40;;;;;;;2.80;2.30;;;;;;;24.70;47.37;98631.06;7000713;28;20287;-82
2023/07/04 05:50:02;;;;;;;3.80;2.40;;;;;;;24.67;47.19;98645.44;6984406;28;20235;-81
2023/07/04 05:53:25;;;;;;;2.70;2.40;;;;;;;25.15;46.54;98652.38;6974421;28;20289;-81
2023/07/04 05:56:51;;;;;;;3.83;2.80;;;;;;;25.22;45.65;98654.72;6985175;28;20650;-81
2023/07/04 06:00:14;;;;;;;3.50;2.53;;;;;;;25.88;44.50;98655.13;7000455;28;20215;-81
2023/07/04 06:03:36;;;;;;;3.67;2.70;;;;;;;25.67;43.29;98648.38;7005584;28;20731;-81
2023/07/04 06:06:57;;;;;;;3.43;2.57;;;;;;;25.54;44.24;98657.50;7002832;28;20597;-80
2023/07/04 06:10:19;;;;;;;2.90;2.43;;;;;;;25.29;44.37;98657.94;7001003;28;20689;-83
2023/07/04 06:13:42;;;;;;;3.00;2.73;;;;;;;25.26;44.78;98658.56;7000210;28;20205;-84
2023/07/04 06:17:04;;;;;;;3.73;2.40;;;;;;;25.39;43.98;98655.81;6998991;28;20722;-84
2023/07/04 06:20:26;;;;;;;3.70;2.40;;;;;;;25.72;43.81;98648.28;6999432;28;20289;-86
2023/07/04 06:23:47;;;;;;;4.17;2.77;;;;;;;25.69;43.86;98629.56;6999784;28;20256;-86
2023/07/04 06:27:09;;;;;;;3.93;3.00;;;;;;;26.14;42.02;98637.72;6999260;28;20273;-83
2023/07/04 06:30:35;;;;;;;5.33;2.80;;;;;;;27.08;40.00;98657.97;6995457;28;20565;-82
2023/07/04 06:33:56;;;;;;;5.17;2.50;;;;;;;27.26;39.78;98651.44;6996737;28;20290;-84
2023/07/04 06:37:18;;;;;;;3.70;2.60;;;;;;;27.79;39.07;98650.25;6993491;28;20217;-81
2023/07/04 06:40:41;;;;;;;3.50;2.50;;;;;;;27.50;39.11;98638.88;6998573;28;20255;-82
2023/07/04 06:44:02;;;;;;;5.63;3.07;;;;;;;28.02;36.50;98643.47;6999814;28;20293;-82
2023/07/04 06:47:25;;;;;;;4.03;2.70;;;;;;;27.61;37.85;98651.28;7000138;28;20612;-85
2023/07/04 06:50:56;;;;;;;7.13;3.00;;;;;;;27.84;36.17;98663.97;6999925;28;20209;-84
2023/07/04 06:54:17;;;;;;;4.27;2.70;;;;;;;29.11;34.75;98654.22;7000430;28;20197;-82
2023/07/04 06:57:39;;;;;;;5.80;3.33;;;;;;;28.42;35.98;98660.91;7000271;28;20218;-82
2023/07/04 07:01:02;;;;;;;4.07;2.77;;;;;;;28.96;34.29;98657.53;7000894;28;20272;-83
2023/07/04 07:04:24;;;;;;;4.03;3.00;;;;;;;29.44;34.82;98652.53;6993300;28;20290;-82
2023/07/04 07:07:47;;;;;;;5.63;2.60;;;;;;;29.72;33.36;98662.94;6987370;28;20240;-83
2023/07/04 07:11:10;;;;;;;5.63;3.27;;;;;;;28.97;34.03;98660.00;7001564;28;20228;-82
2023/07/04 07:14:31;;;;;;;7.13;2.80;;;;;;;28.80;33.68;98651.63;7004066;28;20228;-83
2023/07/04 07:17:53;;;;;;;5.83;3.40;;;;;;;28.64;32.83;98661.56;7002631;28;20277;-82
2023/07/04 07:21:18;;;;;;;4.97;3.30;;;;;;;27.67;34.54;98644.47;7001694;28;20234;-82
2023/07/04 07:24:39;;;;;;;8.27;3.77;;;;;;;26.93;33.98;98656.38;7003980;28;20195;-83
2023/07/04 07:28:01;;;;;;;9.03;4.07;;;;;;;27.45;33.74;98682.50;6987290;28;20277;-82
2023/07/04 07:31:25;;;;;;;7.40;3.80;;;;;;;27.82;33.06;98682.03;7004224;28;20218;-82
2023/07/04 07:34:47;;;;;;;7.67;3.83;;;;;;;27.80;33.01;98681.56;7009122;28;20714;-83
2023/07/04 07:38:10;;;;;;;7.83;4.10;;;;;;;27.82;32.94;98671.78;7007443;28;20237;-85
2023/07/04 07:41:33;;;;;;;5.43;3.90;;;;;;;27.89;32.71;98657.47;7005777;28;20208;-86
2023/07/04 07:44:55;;;;;;;8.33;4.23;;;;;;;27.84;32.35;98680.59;7000883;28;20244;-87
2023/07/04 07:48:17;;;;;;;8.93;3.90;;;;;;;27.91;33.00;98683.75;7002193;28;20229;-84
2023/07/04 07:51:40;;;;;;;7.03;3.90;;;;;;;27.97;33.18;98668.59;7002438;28;20201;-84
2023/07/04 07:55:03;;;;;;;6.67;3.73;;;;;;;27.73;33.98;98678.41;7002517;28;20205;-85
2023/07/04 07:58:25;;;;;;;6.87;3.80;;;;;;;27.73;33.64;98667.31;7001219;28;20221;-85
2023/07/04 08:01:47;;;;;;;5.00;3.77;;;;;;;28.29;32.88;98645.16;6980053;28;20267;-85
2023/07/04 08:05:09;;;;;;;5.27;3.90;;;;;;;27.99;34.01;98673.81;7010567;28;20649;-85
2023/07/04 08:08:30;;;;;;;6.93;4.20;;;;;;;28.19;34.02;98668.47;6999569;28;20226;-85
2023/07/04 08:11:53;;;;;;;8.27;3.67;;;;;;;28.27;33.76;98664.94;7002459;28;20212;-85
2023/07/04 08:15:16;;;;;;;8.07;3.93;;;;;;;28.97;33.01;98664.72;7001737;28;20256;-86
2023/07/04 08:18:38;;;;;;;7.43;3.93;;;;;;;29.42;32.10;98657.63;7000130;28;20318;-84
2023/07/04 08:21:59;;;;;;;8.43;4.00;;;;;;;29.82;31.44;98659.78;6988956;28;20212;-85
2023/07/04 08:25:21;;;;;;;5.47;4.33;;;;;;;29.83;29.13;98647.53;6991666;28;20360;-84
2023/07/04 08:28:43;;;;;;;9.07;4.37;;;;;;;29.76;28.80;98669.47;6976568;28;20227;-85
2023/07/04 08:32:06;;;;;;;8.60;4.33;;;;;;;29.75;28.92;98667.84;7000872;28;20240;-84
2023/07/04 08:35:28;;;;;;;7.10;4.80;;;;;;;30.55;28.73;98659.22;7000589;28;20220;-84
2023/07/04 08:38:50;;;;;;;5.93;4.07;;;;;;;29.84;29.88;98654.69;6999954;28;20219;-85
2023/07/04 08:42:13;;;;;;;8.10;4.93;;;;;;;29.73;29.22;98670.13;7000625;28;20208;-85
2023/07/04 08:45:36;;;;;;;7.37;3.97;;;;;;;30.36;28.00;98658.06;7001089;28;20217;-84
2023/07/04 08:48:58;;;;;;;5.27;4.10;;;;;;;30.80;27.28;98627.63;6998854;28;20239;-85
2023/07/04 08:52:24;;;;;;;5.27;4.37;;;;;;;30.75;27.49;98666.81;7001982;28;20203;-83
2023/07/04 08:55:49;;;;;;;7.40;4.10;;;;;;;30.40;28.08;98668.19;7004551;28;20284;-83
2023/07/04 08:59:17;;;;;;;7.63;4.30;;;;;;;30.15;28.79;98665.56;7001566;28;20222;-83
2023/07/04 09:03:00;;;;;;;8.53;4.13;;;;;;;30.26;29.27;98664.81;6999658;28;20280;-84
2023/07/04 09:06:28;;;;;;;9.30;4.83;;;;;;;31.56;26.97;98667.06;7000134;28;20284;-83
2023/07/04 09:09:53;;;;;;;10.00;5.00;;;;;;;31.48;26.91;98659.63;7000606;28;20304;-83
2023/07/04 09:13:18;;;;;;;9.73;4.50;;;;;;;30.42;28.64;98665.06;6999769;28;20199;-83
2023/07/04 09:16:45;;;;;;;7.60;4.30;;;;;;;30.76;28.49;98657.31;6998351;28;20280;-86
2023/07/04 09:20:10;;;;;;;6.47;3.80;;;;;;;29.75;29.58;98665.06;6999794;28;20273;-84
2023/07/04 09:23:31;;;;;;;8.47;4.80;;;;;;;29.38;29.88;98654.66;7000270;28;20272;-83
2023/07/04 09:26:54;;;;;;;8.77;5.03;;;;;;;30.11;28.89;98659.84;6989824;28;20307;-84
2023/07/04 09:30:16;;;;;;;6.57;4.37;;;;;;;30.77;27.75;98655.34;6994304;28;20277;-85
2023/07/04 09:33:38;;;;;;;8.57;5.03;;;;;;;29.53;29.27;98658.91;7009241;28;20260;-85
2023/07/04 09:37:06;;;;;;;8.67;5.20;;;;;;;29.18;29.70;98663.69;7007170;28;20350;-84
2023/07/04 09:40:42;;;;;;;6.97;4.80;;;;;;;30.49;29.06;98652.22;7006651;28;20209;-84
2023/07/04 09:44:15;;;;;;;8.33;4.80;;;;;;;30.24;28.66;98647.66;6997982;28;20654;-85
2023/07/04 09:47:43;;;;;;;9.80;4.80;;;;;;;31.06;27.63;98646.88;6971822;28;20233;-84
2023/07/04 09:51:16;;;;;;;10.57;5.53;;;;;;;31.06;27.35;98625.41;6982864;28;20211;-84
2023/07/04 09:54:41;;;;;;;6.77;5.10;;;;;;;31.15;27.46;98655.97;6997603;28;20229;-84
2023/07/04 09:58:20;;;;;;;6.90;5.33;;;;;;;31.50;26.54;98635.81;6997171;28;20379;-85
2023/07/04 10:01:43;;;;;;;7.17;5.20;;;;;;;29.03;29.85;98646.75;6991675;28;20198;-85
2023/07/04 10:05:06;;;;;;;6.60;5.33;;;;;;;30.57;28.74;98642.19;6992291;28;20271;-84
2023/07/04 10:08:27;;;;;;;11.43;5.63;;;;;;;30.48;28.75;98639.47;6997403;28;20263;-85
2023/07/04 10:11:51;;;;;;;7.83;4.80;;;;;;;30.30;28.86;98642.72;7003211;28;20621;-84
2023/07/04 10:15:24;;;;;;;7.97;5.57;;;;;;;30.38;28.82;98612.03;7009247;28;20196;-83
2023/07/04 10:18:46;;;;;;;8.97;4.93;;;;;;;29.41;29.80;98620.69;6997784;28;20234;-85
2023/07/04 10:22:07;;;;;;;7.77;5.10;;;;;;;29.37;30.64;98641.13;6997095;28;20273;-85
2023/07/04 10:25:30;;;;;;;8.50;5.40;;;;;;;29.44;29.80;98580.31;6997606;28;20202;-84
2023/07/04 10:28:53;;;;;;;8.67;5.13;;;;;;;29.53;29.51;98640.28;6996687;28;20568;-87
2023/07/04 10:32:17;;;;;;;7.57;5.03;;;;;;;29.60;29.80;98640.56;6981501;28;20728;-83
2023/07/04 10:35:40;;;;;;;6.53;5.20;;;;;;;29.72;29.68;98640.69;6968532;28;20694;-84
2023/07/04 10:39:04;;;;;;;8.90;5.80;;;;;;;29.20;30.60;98638.38;6995213;28;20560;-83
2023/07/04 10:42:29;;;;;;;5.87;4.73;;;;;;;29.10;30.60;98603.44;6997396;28;20210;-83
2023/07/04 10:45:53;;;;;;;6.30;4.73;;;;;;;29.89;30.24;98634.25;6996368;28;20211;-84
2023/07/04 10:49:19;;;;;;;9.30;5.23;;;;;;;30.77;28.92;98619.16;7007605;28;20229;-83
2023/07/04 10:52:43;;;;;;;5.53;4.20;;;;;;;32.40;27.39;98616.91;7015263;28;20288;-84
2023/07/04 10:56:08;;;;;;;7.00;4.80;;;;;;;30.13;28.94;98617.81;7024177;28;20667;-83
2023/07/04 10:59:32;;;;;;;8.00;4.90;;;;;;;31.15;27.82;98576.03;7020116;28;20571;-83
2023/07/04 11:02:58;;;;;;;7.57;5.00;;;;;;;31.48;27.90;98601.88;7009129;28;20239;-84
2023/07/04 11:06:24;;;;;;;5.57;4.67;;;;;;;29.30;30.07;98622.19;6993958;28;20283;-84
2023/07/04 11:09:46;;;;;;;7.33;5.40;;;;;;;29.42;28.66;98616.75;7001714;28;20274;-84
2023/07/04 11:13:09;;;;;;;7.73;5.73;;;;;;;29.95;27.45;98603.13;7003380;28;20251;-84
2023/07/04 11:16:32;;;;;;;7.30;5.23;;;;;;;28.92;29.45;98607.38;7001141;28;20229;-83
2023/07/04 11:19:57;;;;;;;6.53;4.77;;;;;;;29.87;28.62;98623.47;7001732;28;20208;-83
2023/07/04 11:23:20;;;;;;;7.40;5.40;;;;;;;29.70;28.76;98612.44;7001631;28;20294;-84
2023/07/04 11:26:51;;;;;;;5.97;5.30;;;;;;;29.56;29.13;98613.78;7001085;28;20230;-83
2023/07/04 11:30:30;;;;;;;6.07;5.17;;;;;;;29.50;28.71;98601.19;7001148;28;20212;-84
2023/07/04 11:34:03;;;;;;;7.10;5.00;;;;;;;29.55;28.75;98598.28;7000923;28;20223;-84
2023/07/04 11:37:32;;;;;;;7.60;4.90;;;;;;;29.61;29.15;98603.28;6990160;28;20234;-83
2023/07/04 11:40:54;;;;;;;5.40;4.77;;;;;;;29.80;28.57;98602.91;6973095;28;20284;-84
2023/07/04 11:44:22;;;;;;;6.67;4.60;;;;;;;31.25;26.66;98597.88;6985723;28;20245;-84
2023/07/04 11:47:48;;;;;;;7.73;5.00;;;;;;;31.41;26.53;98587.69;7000725;28;20306;-83
2023/07/04 11:51:12;;;;;;;6.67;4.70;;;;;;;31.63;26.55;98584.47;6999020;28;20284;-83
2023/07/04 11:54:35;;;;;;;7.40;5.10;;;;;;;30.33;27.26;98597.53;7001335;28;20210;-85
2023/07/04 11:58:19;;;;;;;5.83;5.10;;;;;;;30.68;27.37;98574.69;6999882;28;20226;-85
2023/07/04 12:02:16;;;;;;;11.33;5.50;;;;;;;31.29;27.25;98579.31;6994290;28;20223;-84
2023/07/04 12:05:38;;;;;;;5.40;4.67;;;;;;;31.62;26.09;98574.50;6972979;28;20233;-85
2023/07/04 12:08:59;;;;;;;6.87;5.50;;;;;;;31.44;26.50;98550.75;7026105;28;20368;-85
2023/07/04 12:12:24;;;;;;;6.67;4.87;;;;;;;32.36;25.43;98555.41;7025779;28;20298;-84
2023/07/04 12:15:49;;;;;;;6.60;5.13;;;;;;;32.05;26.04;98565.56;7013431;28;20264;-85
2023/07/04 12:19:15;;;;;;;5.37;4.73;;;;;;;31.41;26.86;98562.63;6997384;28;20720;-87
2023/07/04 12:22:38;;;;;;;10.90;5.30;;;;;;;30.49;27.54;98560.41;6998666;28;20658;-86
2023/07/04 12:26:00;;;;;;;8.27;4.93;;;;;;;30.54;27.47;98551.03;6999576;28;20244;-85
2023/07/04 12:29:23;;;;;;;7.43;5.00;;;;;;;30.54;27.19;98549.06;7000517;28;20585;-83
2023/07/04 12:32:45;;;;;;;8.53;5.57;;;;;;;29.69;29.41;98552.44;6997765;28;20299;-84
2023/07/04 12:36:09;;;;;;;9.83;5.10;;;;;;;30.42;28.14;98546.22;6999172;28;20256;-84
2023/07/04 12:39:31;;;;;;;5.90;4.33;;;;;;;30.22;28.60;98552.63;7001188;28;20671;-84
2023/07/04 12:42:53;;;;;;;8.90;4.63;;;;;;;29.93;29.24;98552.63;6999470;28;20212;-84
2023/07/04 12:46:19;;;;;;;6.73;5.77;;;;;;;29.99;28.50;98534.59;6999036;28;20240;-84
2023/07/04 12:49:41;;;;;;;6.47;4.73;;;;;;;30.61;28.46;98543.75;6999979;28;20355;-84
2023/07/04 12:53:04;;;;;;;6.63;4.63;;;;;;;30.99;27.22;98536.03;6999387;28;20273;-83
2023/07/04 12:56:27;;;;;;;7.27;5.50;;;;;;;31.65;26.53;98529.19;6999521;28;20252;-84
2023/07/04 12:59:49;;;;;;;9.10;5.50;;;;;;;30.51;26.83;98526.66;6998317;28;20296;-84
2023/07/04 13:03:16;;;;;;;7.37;5.07;;;;;;;31.55;25.36;98523.25;6996206;28;20218;-84
2023/07/04 13:06:37;;;;;;;6.37;4.80;;;;;;;30.46;26.34;98512.97;6997845;28;20293;-84
2023/07/04 13:10:00;;;;;;;6.50;5.20;;;;;;;30.70;26.91;98513.09;6998888;28;20271;-84
2023/07/04 13:13:32;;;;;;;7.77;5.50;;;;;;;29.82;28.04;98478.25;6998679;28;20207;-84
2023/07/04 13:17:07;;;;;;;9.20;5.07;;;;;;;30.21;26.45;98520.38;6997726;28;20267;-84
2023/07/04 13:20:32;;;;;;;6.50;4.93;;;;;;;30.85;26.57;98515.22;6970797;28;20685;-84
2023/07/04 13:23:53;;;;;;;7.43;4.97;;;;;;;30.30;26.71;98511.97;6970645;28;20270;-84
2023/07/04 13:27:18;;;;;;;6.60;4.93;;;;;;;30.54;26.16;98506.53;6970100;28;20378;-84
2023/07/04 13:30:40;;;;;;;7.90;5.50;;;;;;;30.88;25.73;98507.00;6969707;28;20206;-85
2023/07/04 13:34:12;;;;;;;6.73;4.90;;;;;;;29.80;26.25;98481.41;6977157;28;20204;-84
2023/07/04 13:37:35;;;;;;;6.43;4.83;;;;;;;29.86;26.83;98499.50;6996585;28;20232;-85
2023/07/04 13:40:56;;;;;;;7.90;4.90;;;;;;;30.73;26.26;98479.81;7017078;28;20222;-85
2023/07/04 13:44:19;;;;;;;6.47;4.67;;;;;;;30.36;26.37;98493.91;7000148;28;20341;-84
2023/07/04 13:47:40;;;;;;;6.57;4.87;;;;;;;30.41;26.53;98504.81;6999705;28;20279;-85
2023/07/04 13:51:02;;;;;;;7.40;4.43;;;;;;;29.51;27.05;98483.34;7013084;28;20221;-84
2023/07/04 13:54:25;;;;;;;6.03;4.07;;;;;;;29.38;26.98;98479.66;6980973;28;20287;-85
2023/07/04 13:57:46;;;;;;;7.70;5.17;;;;;;;30.31;26.77;98475.44;6981208;28;20311;-85
2023/07/04 14:01:08;;;;;;;5.47;4.83;;;;;;;31.04;25.85;98463.41;6999165;28;20336;-84
2023/07/04 14:04:32;;;;;;;8.33;5.17;;;;;;;31.34;25.46;98466.81;6996869;28;20232;-85
2023/07/04 14:07:53;;;;;;;7.80;4.70;;;;;;;31.84;23.84;98461.69;6997596;28;20246;-85
2023/07/04 14:11:18;;;;;;;5.43;4.30;;;;;;;32.73;23.58;98450.78;6998644;28;20232;-85
2023/07/04 14:14:43;;;;;;;5.30;4.60;;;;;;;32.22;22.84;98347.63;6996447;28;20231;-85
2023/07/04 14:18:04;;;;;;;5.77;3.97;;;;;;;31.56;24.11;98463.56;6997640;28;20231;-85
2023/07/04 14:21:26;;;;;;;5.60;4.57;;;;;;;32.56;23.66;98453.94;6999090;28;20291;-84
2023/07/04 14:24:47;;;;;;;5.33;3.87;;;;;;;32.79;22.77;98438.22;7004606;28;20298;-84
2023/07/04 14:28:10;;;;;;;5.73;4.30;;;;;;;32.73;22.88;98442.41;7007710;28;20711;-84
2023/07/04 14:31:32;;;;;;;4.80;3.97;;;;;;;32.49;22.67;98402.66;7001086;28;20288;-84
2023/07/04 14:34:54;;;;;;;6.30;4.53;;;;;;;32.71;22.63;98441.97;6998574;28;20216;-84
2023/07/04 14:38:16;;;;;;;7.00;4.50;;;;;;;32.89;21.96;98443.28;6991835;28;20222;-84
2023/07/04 14:41:37;;;;;;;6.43;4.20;;;;;;;32.02;23.43;98418.41;7001881;28;20201;-84
2023/07/04 14:45:00;;;;;;;6.97;4.13;;;;;;;31.79;23.57;98434.84;7003891;28;20258;-84
2023/07/04 14:48:23;;;;;;;5.47;4.00;;;;;;;30.73;24.25;98429.69;6997009;28;20224;-84
2023/07/04 14:51:44;;;;;;;3.83;3.10;;;;;;;31.70;23.66;98431.38;7005133;28;20218;-85
2023/07/04 14:55:09;;;;;;;3.53;3.00;;;;;;;31.85;23.45;98419.50;7007375;28;20205;-85
2023/07/04 14:58:30;;;;;;;3.83;3.23;;;;;;;32.02;23.43;98415.63;7006787;28;20223;-85
2023/07/04 15:01:53;;;;;;;4.83;3.40;;;;;;;31.89;23.36;98408.47;7005700;28;20379;-85
2023/07/04 15:05:16;;;;;;;3.70;3.17;;;;;;;32.17;23.21;98400.91;7007874;28;20349;-84
2023/07/04 15:08:37;;;;;;;5.17;3.50;;;;;;;32.46;22.82;98414.53;7006699;28;20692;-85
2023/07/04 15:11:59;;;;;;;4.13;3.20;;;;;;;32.83;22.21;98358.13;7006805;28;20274;-85
2023/07/04 15:15:20;;;;;;;3.97;3.40;;;;;;;32.38;22.53;98409.94;7006601;28;20209;-84
2023/07/04 15:18:44;;;;;;;3.37;3.07;;;;;;;32.15;23.22;98408.84;6987441;28;20224;-85
2023/07/04 15:22:06;;;;;;;3.80;3.40;;;;;;;32.25;23.18;98414.75;6990946;28;20280;-84
2023/07/04 15:25:29;;;;;;;5.57;3.90;;;;;;;32.61;23.14;98402.59;7012545;28;20198;-84
2023/07/04 15:28:50;;;;;;;4.10;3.30;;;;;;;32.32;23.33;98400.97;7011713;28;20238;-83
2023/07/04 15:32:12;;;;;;;4.57;3.77;;;;;;;32.22;23.23;98381.13;7012377;28;20225;-84
2023/07/04 15:35:35;;;;;;;6.23;3.47;;;;;;;31.86;23.35;98373.75;7013090;28;20288;-83
2023/07/04 15:38:56;;;;;;;4.70;3.43;;;;;;;32.13;23.57;98372.13;7012520;28;20278;-84
2023/07/04 15:42:18;;;;;;;3.97;3.57;;;;;;;31.35;23.89;98370.91;7013110;28;20210;-84
2023/07/04 15:45:39;;;;;;;3.63;3.30;;;;;;;31.60;23.93;98383.66;7011652;28;20215;-84
2023/07/04 15:49:01;;;;;;;5.07;3.57;;;;;;;31.20;24.50;98369.63;7015952;28;20314;-83
2023/07/04 15:52:24;;;;;;;6.03;3.47;;;;;;;31.98;24.03;98359.75;7007689;28;20232;-83
2023/07/04 15:55:45;;;;;;;6.67;3.53;;;;;;;31.95;23.29;98374.38;7007830;28;20224;-83
2023/07/04 15:59:07;;;;;;;4.27;3.87;;;;;;;32.11;24.01;98366.06;7005906;28;20272;-83